createdAt,value
2024-01-28T00:00:26.273Z,98465.13
2024-01-28T00:02:29.308Z,98474.75
2024-01-28T00:04:32.175Z,98466.13
2024-01-28T00:06:35.078Z,98470.78
2024-01-28T00:08:39.289Z,98468.41
2024-01-28T00:10:42.667Z,98472.75
2024-01-28T00:12:45.550Z,98469.41
2024-01-28T00:14:48.741Z,98468.75
2024-01-28T00:16:52.231Z,98465.09
2024-01-28T00:18:59.280Z,98467.09
2024-01-28T00:21:01.797Z,98459.81
2024-01-28T00:23:04.821Z,98463.44
2024-01-28T00:25:09.707Z,98466.25
2024-01-28T00:27:11.599Z,98463.78
2024-01-28T00:29:14.462Z,98467.44
2024-01-28T00:31:16.264Z,98456.16
2024-01-28T00:33:19.304Z,98457.16
2024-01-28T00:35:22.264Z,98459.81
2024-01-28T00:37:25.746Z,98458.81
2024-01-28T00:39:30.068Z,98464.13
2024-01-28T00:41:36.032Z,98455.16
2024-01-28T00:43:41.148Z,98455.16
2024-01-28T00:45:43.834Z,98448.38
2024-01-28T00:47:47.609Z,98451.31
2024-01-28T00:49:50.791Z,98450.50
2024-01-28T00:51:53.946Z,98453.31
2024-01-28T00:53:56.733Z,98458.94
2024-01-28T00:56:00.497Z,98458.41
2024-01-28T00:58:04.843Z,98451.47
2024-01-28T01:00:09.253Z,98449.81
2024-01-28T01:02:12.108Z,98441.19
2024-01-28T01:04:15.422Z,98446.31
2024-01-28T01:06:17.435Z,98445.34
2024-01-28T01:08:20.489Z,98445.16
2024-01-28T01:10:26.732Z,98442.38
2024-01-28T01:12:29.743Z,98444.19
2024-01-28T01:14:36.707Z,98449.16
2024-01-28T01:16:39.695Z,98450.81
2024-01-28T01:18:43.211Z,98455.13
2024-01-28T01:20:46.004Z,98449.84
2024-01-28T01:22:49.770Z,98446.03
2024-01-28T01:24:52.860Z,98451.31
2024-01-28T01:26:55.823Z,98447.84
2024-01-28T01:28:58.647Z,98447.84
2024-01-28T01:31:04.357Z,98438.06
2024-01-28T01:33:07.782Z,98439.22
2024-01-28T01:35:11.725Z,98445.53
2024-01-28T01:37:14.793Z,98446.53
2024-01-28T01:39:18.152Z,98442.38
2024-01-28T01:41:21.327Z,98443.50
2024-01-28T01:43:23.138Z,98443.66
2024-01-28T01:45:26.151Z,98449.13
2024-01-28T01:47:30.642Z,98449.47
2024-01-28T01:49:34.353Z,98448.63
2024-01-28T01:51:37.732Z,98451.13
2024-01-28T01:53:41.107Z,98451.13
2024-01-28T01:55:44.464Z,98451.63
2024-01-28T01:57:48.032Z,98444.50
2024-01-28T01:59:51.010Z,98452.44
2024-01-28T02:01:55.753Z,98447.81
2024-01-28T02:04:00.540Z,98453.81
2024-01-28T02:06:02.686Z,98441.69
2024-01-28T02:08:06.584Z,98439.03
2024-01-28T02:10:11.108Z,98438.91
2024-01-28T02:12:14.126Z,98436.25
2024-01-28T02:14:22.801Z,98443.22
2024-01-28T02:16:25.592Z,98436.91
2024-01-28T02:18:28.329Z,98433.09
2024-01-28T02:20:31.695Z,98430.44
2024-01-28T02:22:35.354Z,98433.09
2024-01-28T02:24:39.662Z,98438.41
2024-01-28T02:26:42.865Z,98435.75
2024-01-28T02:28:45.722Z,98432.09
2024-01-28T02:30:48.587Z,98432.94
2024-01-28T02:32:52.177Z,98428.63
2024-01-28T02:34:55.512Z,98436.59
2024-01-28T02:36:58.241Z,98432.94
2024-01-28T02:39:01.901Z,98433.78
2024-01-28T02:41:06.228Z,98436.41
2024-01-28T02:43:09.096Z,98429.47
2024-01-28T02:45:11.983Z,98430.28
2024-01-28T02:47:14.872Z,98432.94
2024-01-28T02:49:18.416Z,98428.63
2024-01-28T02:51:21.385Z,98429.28
2024-01-28T02:53:24.273Z,98426.66
2024-01-28T02:55:27.253Z,98421.34
2024-01-28T02:57:31.446Z,98419.53
2024-01-28T02:59:34.394Z,98423.16
2024-01-28T03:01:46.229Z,98428.47
2024-01-28T03:03:49.214Z,98424.16
2024-01-28T03:05:52.042Z,98422.66
2024-01-28T03:07:55.099Z,98408.75
2024-01-28T03:09:57.875Z,98416.72
2024-01-28T03:12:01.449Z,98409.75
2024-01-28T03:14:07.726Z,98411.72
2024-01-28T03:16:11.842Z,98412.53
2024-01-28T03:18:13.821Z,98411.72
2024-01-28T03:20:18.565Z,98403.75
2024-01-28T03:22:22.178Z,98405.56
2024-01-28T03:24:25.073Z,98408.22
2024-01-28T03:26:28.051Z,98412.69
2024-01-28T03:28:30.989Z,98406.75
2024-01-28T03:30:35.287Z,98404.09
2024-01-28T03:32:38.093Z,98413.03
2024-01-28T03:34:41.073Z,98407.72
2024-01-28T03:36:43.988Z,98412.38
2024-01-28T03:38:46.832Z,98411.53
2024-01-28T03:40:49.780Z,98412.53
2024-01-28T03:42:52.693Z,98410.97
2024-01-28T03:44:55.603Z,98406.69
2024-01-28T03:46:59.879Z,98405.19
2024-01-28T03:49:02.912Z,98406.19
2024-01-28T03:51:07.205Z,98408.66
2024-01-28T03:53:10.949Z,98407.84
2024-01-28T03:55:14.886Z,98404.53
2024-01-28T03:57:17.769Z,98397.41
2024-01-28T03:59:20.783Z,98401.72
2024-01-28T04:01:32.948Z,98404.69
2024-01-28T04:03:38.166Z,98403.03
2024-01-28T04:05:41.139Z,98401.38
2024-01-28T04:07:44.153Z,98397.06
2024-01-28T04:09:47.170Z,98404.31
2024-01-28T04:11:50.181Z,98399.03
2024-01-28T04:14:13.066Z,98397.06
2024-01-28T04:16:15.104Z,98397.06
2024-01-28T04:18:19.029Z,98386.59
2024-01-28T04:20:23.380Z,98396.53
2024-01-28T04:22:25.524Z,98399.19
2024-01-28T04:24:28.395Z,98387.94
2024-01-28T04:26:32.094Z,98388.94
2024-01-28T04:28:34.985Z,98399.53
2024-01-28T04:30:38.131Z,98391.75
2024-01-28T04:32:41.067Z,98396.66
2024-01-28T04:34:44.258Z,98396.00
2024-01-28T04:36:48.748Z,98399.66
2024-01-28T04:38:51.661Z,98398.97
2024-01-28T04:40:55.277Z,98404.94
2024-01-28T04:42:58.231Z,98401.31
2024-01-28T04:45:01.581Z,98405.78
2024-01-28T04:47:04.764Z,98403.94
2024-01-28T04:49:07.051Z,98397.00
2024-01-28T04:51:09.993Z,98395.34
2024-01-28T04:53:14.468Z,98398.00
2024-01-28T04:55:17.439Z,98393.69
2024-01-28T04:57:20.595Z,98397.31
2024-01-28T04:59:23.633Z,98390.38
2024-01-28T05:01:26.833Z,98394.00
2024-01-28T05:03:28.821Z,98385.41
2024-01-28T05:05:31.887Z,98397.66
2024-01-28T05:07:35.160Z,98388.19
2024-01-28T05:09:40.240Z,98392.66
2024-01-28T05:11:43.163Z,98391.81
2024-01-28T05:13:46.043Z,98392.97
2024-01-28T05:15:49.417Z,98389.50
2024-01-28T05:17:52.415Z,98388.00
2024-01-28T05:19:55.461Z,98391.66
2024-01-28T05:21:58.487Z,98388.34
2024-01-28T05:24:01.898Z,98385.00
2024-01-28T05:26:06.625Z,98384.16
2024-01-28T05:28:10.401Z,98385.16
2024-01-28T05:30:15.178Z,98386.97
2024-01-28T05:32:18.080Z,98379.03
2024-01-28T05:34:21.235Z,98380.03
2024-01-28T05:36:24.197Z,98384.50
2024-01-28T05:38:27.392Z,98382.00
2024-01-28T05:40:30.419Z,98387.31
2024-01-28T05:42:34.723Z,98385.63
2024-01-28T05:44:37.565Z,98378.69
2024-01-28T05:46:40.398Z,98378.53
2024-01-28T05:48:42.348Z,98381.34
2024-01-28T05:50:45.321Z,98378.69
2024-01-28T05:52:49.107Z,98384.97
2024-01-28T05:54:52.874Z,98381.50
2024-01-28T05:56:55.842Z,98386.94
2024-01-28T05:59:00.021Z,98393.91
2024-01-28T06:01:07.759Z,98391.25
2024-01-28T06:03:11.204Z,98392.22
2024-01-28T06:05:14.238Z,98391.38
2024-01-28T06:07:16.498Z,98394.19
2024-01-28T06:09:19.470Z,98398.16
2024-01-28T06:11:22.344Z,98391.22
2024-01-28T06:13:24.469Z,98394.69
2024-01-28T06:15:29.810Z,98399.16
2024-01-28T06:17:32.683Z,98397.34
2024-01-28T06:19:35.582Z,98399.97
2024-01-28T06:21:38.514Z,98405.28
2024-01-28T06:23:42.194Z,98393.53
2024-01-28T06:25:45.173Z,98407.75
2024-01-28T06:27:49.397Z,98395.50
2024-01-28T06:29:52.275Z,98391.88
2024-01-28T06:31:55.525Z,98394.38
2024-01-28T06:33:58.471Z,98389.22
2024-01-28T06:36:01.403Z,98388.25
2024-01-28T06:38:04.309Z,98389.91
2024-01-28T06:40:09.375Z,98380.97
2024-01-28T06:42:12.528Z,98381.97
2024-01-28T06:44:16.078Z,98382.63
2024-01-28T06:46:20.225Z,98390.56
2024-01-28T06:48:24.828Z,98387.09
2024-01-28T06:50:27.880Z,98388.75
2024-01-28T06:52:31.542Z,98393.22
2024-01-28T06:54:34.740Z,98387.25
2024-01-28T06:56:37.611Z,98392.72
2024-01-28T06:58:40.480Z,98387.41
2024-01-28T07:00:43.600Z,98388.25
2024-01-28T07:02:47.444Z,98399.66
2024-01-28T07:04:51.717Z,98398.81
2024-01-28T07:06:54.767Z,98401.47
2024-01-28T07:08:58.234Z,98395.19
2024-01-28T07:11:02.361Z,98393.38
2024-01-28T07:13:07.111Z,98394.38
2024-01-28T07:15:10.916Z,98396.03
2024-01-28T07:17:13.875Z,98395.84
2024-01-28T07:19:16.784Z,98394.03
2024-01-28T07:21:21.113Z,98403.66
2024-01-28T07:23:24.010Z,98392.22
2024-01-28T07:25:27.474Z,98402.16
2024-01-28T07:27:30.443Z,98406.44
2024-01-28T07:29:33.331Z,98401.84
2024-01-28T07:31:36.118Z,98410.63
2024-01-28T07:33:39.065Z,98405.16
2024-01-28T07:35:42.035Z,98405.16
2024-01-28T07:37:46.453Z,98413.28
2024-01-28T07:39:49.435Z,98411.75
2024-01-28T07:41:52.365Z,98410.25
2024-01-28T07:43:55.668Z,98414.38
2024-01-28T07:45:58.534Z,98408.28
2024-01-28T07:48:01.374Z,98408.81
2024-01-28T07:50:06.691Z,98409.63
2024-01-28T07:52:09.881Z,98410.47
2024-01-28T07:54:14.442Z,98411.28
2024-01-28T07:56:17.636Z,98406.66
2024-01-28T07:58:20.454Z,98404.00
2024-01-28T08:00:23.889Z,98403.19
2024-01-28T08:02:26.881Z,98404.00
2024-01-28T08:04:29.457Z,98406.50
2024-01-28T08:06:32.634Z,98409.16
2024-01-28T08:08:35.677Z,98403.03
2024-01-28T08:10:40.022Z,98399.38
2024-01-28T08:12:42.488Z,98401.88
2024-01-28T08:14:45.514Z,98410.63
2024-01-28T08:16:48.512Z,98399.22
2024-01-28T08:18:51.493Z,98408.81
2024-01-28T08:20:54.484Z,98414.13
2024-01-28T08:22:57.393Z,98406.16
2024-01-28T08:25:00.332Z,98406.88
2024-01-28T08:27:05.421Z,98410.34
2024-01-28T08:29:08.429Z,98405.88
2024-01-28T08:31:11.322Z,98412.00
2024-01-28T08:33:14.507Z,98404.22
2024-01-28T08:35:19.025Z,98414.81
2024-01-28T08:37:23.643Z,98413.13
2024-01-28T08:39:26.975Z,98413.28
2024-01-28T08:41:31.600Z,98417.75
2024-01-28T08:43:38.676Z,98414.28
2024-01-28T08:45:41.635Z,98414.13
2024-01-28T08:47:44.545Z,98412.28
2024-01-28T08:49:49.656Z,98413.13
2024-01-28T08:51:53.939Z,98402.53
2024-01-28T08:53:56.858Z,98413.81
2024-01-28T08:55:59.731Z,98410.34
2024-01-28T08:58:02.607Z,98417.47
2024-01-28T09:00:12.924Z,98413.66
2024-01-28T09:02:16.103Z,98415.31
2024-01-28T09:04:19.851Z,98406.38
2024-01-28T09:06:22.902Z,98407.22
2024-01-28T09:08:26.467Z,98413.34
2024-01-28T09:10:28.298Z,98400.91
2024-01-28T09:12:31.263Z,98405.56
2024-01-28T09:14:34.345Z,98408.19
2024-01-28T09:16:37.834Z,98409.69
2024-01-28T09:18:43.579Z,98414.16
2024-01-28T09:20:46.457Z,98413.00
2024-01-28T09:22:49.346Z,98416.47
2024-01-28T09:24:52.387Z,98415.66
2024-01-28T09:26:54.494Z,98412.84
2024-01-28T09:28:58.013Z,98401.28
2024-01-28T09:31:01.071Z,98417.31
2024-01-28T09:33:06.384Z,98407.88
2024-01-28T09:35:09.997Z,98419.47
2024-01-28T09:37:12.984Z,98416.97
2024-01-28T09:39:15.595Z,98414.50
2024-01-28T09:41:28.282Z,98420.78
2024-01-28T09:43:31.691Z,98423.41
2024-01-28T09:45:34.591Z,98418.13
2024-01-28T09:47:37.902Z,98419.78
2024-01-28T09:49:44.694Z,98416.16
2024-01-28T09:51:47.927Z,98424.75
2024-01-28T09:53:51.037Z,98424.59
2024-01-28T09:55:53.887Z,98425.41
2024-01-28T09:57:56.786Z,98431.38
2024-01-28T10:00:00.297Z,98427.06
2024-01-28T10:02:03.849Z,98437.50
2024-01-28T10:04:08.426Z,98433.06
2024-01-28T10:06:12.934Z,98436.69
2024-01-28T10:08:16.746Z,98439.81
2024-01-28T10:10:20.065Z,98444.28
2024-01-28T10:12:23.025Z,98442.28
2024-01-28T10:14:26.635Z,98444.28
2024-01-28T10:16:33.044Z,98445.09
2024-01-28T10:18:36.221Z,98434.53
2024-01-28T10:20:39.241Z,98446.75
2024-01-28T10:22:43.715Z,98446.44
2024-01-28T10:24:46.975Z,98444.63
2024-01-28T10:26:49.894Z,98441.16
2024-01-28T10:28:53.457Z,98440.31
2024-01-28T10:30:56.425Z,98441.16
2024-01-28T10:32:58.559Z,98439.31
2024-01-28T10:35:01.754Z,98439.31
2024-01-28T10:37:07.266Z,98433.38
2024-01-28T10:39:17.427Z,98433.38
2024-01-28T10:41:21.308Z,98429.72
2024-01-28T10:43:29.010Z,98433.06
2024-01-28T10:45:33.512Z,98419.13
2024-01-28T10:47:37.734Z,98425.25
2024-01-28T10:49:44.803Z,98424.25
2024-01-28T10:51:52.839Z,98421.63
2024-01-28T10:53:56.597Z,98423.44
2024-01-28T10:56:02.792Z,98420.78
2024-01-28T10:58:07.159Z,98419.84
2024-01-28T11:00:14.055Z,98420.94
2024-01-28T11:02:21.022Z,98412.50
2024-01-28T11:04:24.738Z,98412.50
2024-01-28T11:06:28.822Z,98408.88
2024-01-28T11:08:31.369Z,98404.88
2024-01-28T11:10:36.147Z,98409.34
2024-01-28T11:12:41.076Z,98407.53
2024-01-28T11:14:44.062Z,98396.63
2024-01-28T11:16:48.892Z,98393.81
2024-01-28T11:18:59.044Z,98391.00
2024-01-28T11:21:12.133Z,98383.88
2024-01-28T11:23:17.686Z,98387.19
2024-01-28T11:25:20.922Z,98388.06
2024-01-28T11:27:23.993Z,98381.75
2024-01-28T11:29:36.704Z,98378.63
2024-01-28T11:31:41.290Z,98384.41
2024-01-28T11:33:48.277Z,98377.00
2024-01-28T11:35:53.617Z,98374.84
2024-01-28T11:37:57.698Z,98375.69
2024-01-28T11:40:07.351Z,98360.63
2024-01-28T11:42:11.735Z,98364.25
2024-01-28T11:44:14.731Z,98366.06
2024-01-28T11:46:21.253Z,98357.63
2024-01-28T11:48:24.317Z,98356.94
2024-01-28T11:50:28.153Z,98347.34
2024-01-28T11:52:29.961Z,98354.97
2024-01-28T11:54:33.284Z,98347.88
2024-01-28T11:56:35.316Z,98349.81
2024-01-28T11:58:38.417Z,98346.22
2024-01-28T12:00:42.880Z,98346.88
2024-01-28T12:02:47.793Z,98349.69
2024-01-28T12:04:57.910Z,98340.09
2024-01-28T12:07:02.820Z,98343.22
2024-01-28T12:09:05.686Z,98340.91
2024-01-28T12:11:07.901Z,98339.09
2024-01-28T12:13:13.401Z,98325.84
2024-01-28T12:15:18.049Z,98324.69
2024-01-28T12:17:21.001Z,98314.09
2024-01-28T12:19:25.695Z,98314.94
2024-01-28T12:21:29.620Z,98314.09
2024-01-28T12:23:32.009Z,98317.41
2024-01-28T12:25:37.677Z,98310.44
2024-01-28T12:27:41.890Z,98305.97
2024-01-28T12:29:44.953Z,98302.69
2024-01-28T12:31:47.899Z,98303.84
2024-01-28T12:33:52.237Z,98300.34
2024-01-28T12:35:56.635Z,98291.41
2024-01-28T12:37:59.561Z,98286.94
2024-01-28T12:40:01.891Z,98286.25
2024-01-28T12:42:05.030Z,98279.16
2024-01-28T12:44:09.401Z,98285.94
2024-01-28T12:46:12.266Z,98278.19
2024-01-28T12:48:15.782Z,98273.53
2024-01-28T12:50:18.958Z,98271.53
2024-01-28T12:52:23.629Z,98271.38
2024-01-28T12:54:26.626Z,98264.25
2024-01-28T12:56:29.573Z,98263.25
2024-01-28T12:58:33.455Z,98255.31
2024-01-28T13:00:37.349Z,98259.63
2024-01-28T13:02:41.112Z,98253.31
2024-01-28T13:04:44.339Z,98260.31
2024-01-28T13:06:47.320Z,98249.03
2024-01-28T13:08:51.568Z,98255.97
2024-01-28T13:10:55.333Z,98248.38
2024-01-28T13:12:58.885Z,98248.19
2024-01-28T13:15:01.860Z,98246.38
2024-01-28T13:17:05.843Z,98240.78
2024-01-28T13:19:08.798Z,98235.31
2024-01-28T13:21:11.772Z,98232.66
2024-01-28T13:23:14.861Z,98230.84
2024-01-28T13:25:21.893Z,98232.50
2024-01-28T13:27:25.090Z,98222.72
2024-01-28T13:29:30.747Z,98227.03
2024-01-28T13:31:33.589Z,98225.84
2024-01-28T13:33:36.459Z,98214.25
2024-01-28T13:35:40.597Z,98214.25
2024-01-28T13:37:44.583Z,98217.91
2024-01-28T13:39:47.830Z,98211.63
2024-01-28T13:41:52.103Z,98217.47
2024-01-28T13:43:54.475Z,98214.81
2024-01-28T13:45:57.752Z,98209.50
2024-01-28T13:47:59.940Z,98215.63
2024-01-28T13:50:02.968Z,98212.00
2024-01-28T13:52:06.547Z,98212.00
2024-01-28T13:54:09.382Z,98209.34
2024-01-28T13:56:12.249Z,98211.00
2024-01-28T13:58:17.458Z,98208.50
2024-01-28T14:00:21.247Z,98204.22
2024-01-28T14:02:24.131Z,98200.56
2024-01-28T14:04:27.040Z,98210.00
2024-01-28T14:06:30.652Z,98206.34
2024-01-28T14:08:33.675Z,98205.69
2024-01-28T14:10:36.822Z,98210.00
2024-01-28T14:12:39.942Z,98200.22
2024-01-28T14:14:45.005Z,98199.22
2024-01-28T14:16:48.054Z,98194.59
2024-01-28T14:18:50.989Z,98201.53
2024-01-28T14:20:53.919Z,98197.88
2024-01-28T14:22:57.122Z,98192.59
2024-01-28T14:25:00.373Z,98192.59
2024-01-28T14:27:03.312Z,98199.72
2024-01-28T14:29:06.134Z,98197.22
2024-01-28T14:31:10.360Z,98196.25
2024-01-28T14:33:13.884Z,98189.94
2024-01-28T14:35:17.220Z,98191.75
2024-01-28T14:37:20.807Z,98192.75
2024-01-28T14:39:26.738Z,98197.06
2024-01-28T14:41:29.937Z,98194.28
2024-01-28T14:43:33.690Z,98198.72
2024-01-28T14:45:36.689Z,98200.41
2024-01-28T14:47:42.042Z,98195.41
2024-01-28T14:49:44.715Z,98188.47
2024-01-28T14:51:47.801Z,98192.75
2024-01-28T14:53:50.867Z,98190.25
2024-01-28T14:55:53.919Z,98191.06
2024-01-28T14:57:56.933Z,98190.25
2024-01-28T15:00:00.054Z,98185.78
2024-01-28T15:02:06.674Z,98189.41
2024-01-28T15:04:11.268Z,98182.16
2024-01-28T15:06:14.591Z,98188.31
2024-01-28T15:08:17.535Z,98187.47
2024-01-28T15:10:20.591Z,98188.44
2024-01-28T15:12:25.765Z,98181.47
2024-01-28T15:14:29.046Z,98185.78
2024-01-28T15:16:32.065Z,98183.28
2024-01-28T15:18:35.052Z,98180.81
2024-01-28T15:20:39.309Z,98173.22
2024-01-28T15:22:42.081Z,98182.97
2024-01-28T15:24:45.065Z,98186.47
2024-01-28T15:26:47.909Z,98182.81
2024-01-28T15:28:50.831Z,98181.97
2024-01-28T15:30:56.156Z,98181.16
2024-01-28T15:33:01.008Z,98181.00
2024-01-28T15:35:05.876Z,98183.47
2024-01-28T15:37:10.492Z,98177.16
2024-01-28T15:39:14.241Z,98182.47
2024-01-28T15:41:17.930Z,98181.47
2024-01-28T15:43:22.881Z,98177.16
2024-01-28T15:45:25.850Z,98176.34
2024-01-28T15:47:28.847Z,98185.28
2024-01-28T15:49:32.143Z,98185.47
2024-01-28T15:51:35.474Z,98187.13
2024-01-28T15:53:39.778Z,98185.47
2024-01-28T15:55:41.789Z,98187.13
2024-01-28T15:57:45.066Z,98182.81
2024-01-28T15:59:55.187Z,98182.81
2024-01-28T16:02:07.430Z,98188.94
2024-01-28T16:04:10.635Z,98186.47
2024-01-28T16:06:13.823Z,98185.63
2024-01-28T16:08:17.308Z,98190.94
2024-01-28T16:10:21.738Z,98185.63
2024-01-28T16:12:25.458Z,98188.44
2024-01-28T16:14:28.642Z,98183.16
2024-01-28T16:16:31.609Z,98186.78
2024-01-28T16:18:34.755Z,98200.22
2024-01-28T16:20:37.701Z,98197.69
2024-01-28T16:22:40.813Z,98196.88
2024-01-28T16:24:43.741Z,98202.34
2024-01-28T16:26:48.160Z,98206.97
2024-01-28T16:28:51.094Z,98207.97
2024-01-28T16:30:54.467Z,98210.63
2024-01-28T16:33:17.682Z,98209.97
2024-01-28T16:35:35.995Z,98211.97
2024-01-28T16:37:38.849Z,98212.97
2024-01-28T16:39:41.856Z,98212.25
2024-01-28T16:41:49.198Z,98213.25
2024-01-28T16:43:52.186Z,98215.25
2024-01-28T16:45:55.214Z,98212.78
2024-01-28T16:47:59.764Z,98210.28
2024-01-28T16:50:02.862Z,98212.94
2024-01-28T16:52:06.208Z,98217.41
2024-01-28T16:54:09.255Z,98219.22
2024-01-28T16:56:12.869Z,98214.25
2024-01-28T16:58:17.414Z,98217.88
2024-01-28T17:00:20.817Z,98215.22
2024-01-28T17:02:23.754Z,98216.41
2024-01-28T17:04:26.722Z,98221.84
2024-01-28T17:06:29.916Z,98215.75
2024-01-28T17:08:32.872Z,98212.44
2024-01-28T17:10:36.099Z,98214.25
2024-01-28T17:12:39.189Z,98214.41
2024-01-28T17:14:44.449Z,98211.91
2024-01-28T17:16:46.339Z,98214.56
2024-01-28T17:18:49.932Z,98216.38
2024-01-28T17:20:53.219Z,98212.91
2024-01-28T17:22:56.172Z,98214.72
2024-01-28T17:24:58.267Z,98219.19
2024-01-28T17:27:01.113Z,98223.66
2024-01-28T17:29:04.701Z,98214.88
2024-01-28T17:31:09.062Z,98222.84
2024-01-28T17:33:13.097Z,98223.81
2024-01-28T17:35:16.211Z,98225.81
2024-01-28T17:37:19.347Z,98224.16
2024-01-28T17:39:22.414Z,98225.16
2024-01-28T17:41:25.342Z,98218.22
2024-01-28T17:43:29.243Z,98223.50
2024-01-28T17:45:32.243Z,98223.66
2024-01-28T17:47:38.647Z,98224.50
2024-01-28T17:49:43.288Z,98228.09
2024-01-28T17:51:46.211Z,98216.69
2024-01-28T17:53:49.080Z,98221.16
2024-01-28T17:55:54.220Z,98230.09
2024-01-28T17:57:57.230Z,98222.97
2024-01-28T18:00:00.173Z,98222.16
2024-01-28T18:02:03.319Z,98221.31
2024-01-28T18:04:07.764Z,98224.97
2024-01-28T18:06:12.325Z,98224.97
2024-01-28T18:08:15.271Z,98219.66
2024-01-28T18:10:17.955Z,98225.78
2024-01-28T18:12:20.845Z,98228.44
2024-01-28T18:14:23.926Z,98230.25
2024-01-28T18:16:26.910Z,98239.03
2024-01-28T18:18:29.941Z,98233.72
2024-01-28T18:20:35.710Z,98237.38
2024-01-28T18:22:39.231Z,98229.44
2024-01-28T18:24:42.753Z,98229.44
2024-01-28T18:26:46.925Z,98237.38
2024-01-28T18:28:49.661Z,98230.25
2024-01-28T18:30:52.594Z,98238.19
2024-01-28T18:32:55.576Z,98238.19
2024-01-28T18:34:59.217Z,98242.50
2024-01-28T18:37:03.697Z,98244.31
2024-01-28T18:39:07.755Z,98242.50
2024-01-28T18:41:11.688Z,98240.84
2024-01-28T18:43:14.611Z,98250.28
2024-01-28T18:45:17.886Z,98251.25
2024-01-28T18:47:20.897Z,98245.97
2024-01-28T18:49:23.813Z,98248.63
2024-01-28T18:51:26.931Z,98241.66
2024-01-28T18:53:31.146Z,98239.03
2024-01-28T18:55:33.956Z,98249.44
2024-01-28T18:57:36.877Z,98242.31
2024-01-28T18:59:38.818Z,98243.31
2024-01-28T19:01:41.933Z,98248.63
2024-01-28T19:03:44.896Z,98246.97
2024-01-28T19:05:47.905Z,98248.78
2024-01-28T19:07:52.658Z,98249.59
2024-01-28T19:09:57.529Z,98253.09
2024-01-28T19:12:04.428Z,98251.44
2024-01-28T19:14:12.178Z,98253.09
2024-01-28T19:16:15.386Z,98244.47
2024-01-28T19:18:20.548Z,98249.78
2024-01-28T19:20:24.039Z,98247.13
2024-01-28T19:22:26.894Z,98252.41
2024-01-28T19:24:30.422Z,98255.06
2024-01-28T19:26:35.669Z,98251.75
2024-01-28T19:28:39.069Z,98252.59
2024-01-28T19:30:41.999Z,98265.00
2024-01-28T19:32:45.381Z,98260.69
2024-01-28T19:34:47.296Z,98258.88
2024-01-28T19:36:50.199Z,98260.84
2024-01-28T19:38:53.455Z,98262.69
2024-01-28T19:40:56.303Z,98267.13
2024-01-28T19:43:00.771Z,98266.31
2024-01-28T19:45:02.718Z,98266.59
2024-01-28T19:47:06.530Z,98271.75
2024-01-28T19:49:09.203Z,98264.78
2024-01-28T19:51:12.737Z,98271.06
2024-01-28T19:53:15.611Z,98272.06
2024-01-28T19:55:18.774Z,98276.53
2024-01-28T19:57:20.978Z,98271.41
2024-01-28T19:59:25.209Z,98272.22
2024-01-28T20:01:29.019Z,98277.38
2024-01-28T20:03:32.210Z,98281.81
2024-01-28T20:05:35.209Z,98268.75
2024-01-28T20:07:38.177Z,98274.72
2024-01-28T20:09:41.156Z,98277.38
2024-01-28T20:11:44.003Z,98284.47
2024-01-28T20:13:47.553Z,98281.81
2024-01-28T20:15:52.000Z,98277.38
2024-01-28T20:17:55.094Z,98282.66
2024-01-28T20:19:58.869Z,98276.53
2024-01-28T20:22:01.057Z,98281.81
2024-01-28T20:24:04.059Z,98282.00
2024-01-28T20:26:07.531Z,98282.00
2024-01-28T20:28:12.486Z,98289.25
2024-01-28T20:30:15.774Z,98287.59
2024-01-28T20:32:20.094Z,98287.59
2024-01-28T20:34:22.345Z,98277.31
2024-01-28T20:36:25.377Z,98281.63
2024-01-28T20:38:28.415Z,98278.16
2024-01-28T20:40:30.654Z,98277.31
2024-01-28T20:42:33.720Z,98277.47
2024-01-28T20:44:38.279Z,98284.59
2024-01-28T20:46:44.218Z,98278.47
2024-01-28T20:48:52.518Z,98281.28
2024-01-28T20:50:55.669Z,98281.28
2024-01-28T20:52:59.393Z,98281.28
2024-01-28T20:55:03.219Z,98290.22
2024-01-28T20:57:07.945Z,98289.22
2024-01-28T20:59:10.783Z,98288.41
2024-01-28T21:01:14.065Z,98288.56
2024-01-28T21:03:20.050Z,98285.91
2024-01-28T21:05:24.616Z,98289.38
2024-01-28T21:07:28.459Z,98286.75
2024-01-28T21:09:30.564Z,98286.91
2024-01-28T21:11:33.369Z,98293.19
2024-01-28T21:13:36.513Z,98296.66
2024-01-28T21:15:39.722Z,98295.00
2024-01-28T21:17:42.727Z,98302.78
2024-01-28T21:19:45.740Z,98298.47
2024-01-28T21:21:53.089Z,98293.19
2024-01-28T21:23:56.099Z,98301.13
2024-01-28T21:26:00.208Z,98299.47
2024-01-28T21:28:03.329Z,98305.59
2024-01-28T21:30:07.465Z,98303.94
2024-01-28T21:32:10.417Z,98304.75
2024-01-28T21:34:15.401Z,98309.22
2024-01-28T21:36:18.533Z,98304.06
2024-01-28T21:38:22.927Z,98312.00
2024-01-28T21:40:25.787Z,98307.69
2024-01-28T21:42:28.688Z,98299.75
2024-01-28T21:44:33.317Z,98302.41
2024-01-28T21:46:37.275Z,98301.75
2024-01-28T21:48:39.247Z,98305.38
2024-01-28T21:50:42.371Z,98303.41
2024-01-28T21:52:45.349Z,98300.91
2024-01-28T21:54:49.659Z,98311.50
2024-01-28T21:56:53.610Z,98308.03
2024-01-28T21:58:57.265Z,98308.03
2024-01-28T22:01:00.278Z,98313.31
